createdAt,value
2022-11-22T00:00:44.468Z,25.80
2022-11-22T00:03:11.682Z,25.60
2022-11-22T00:05:38.653Z,25.60
2022-11-22T00:08:05.727Z,26.30
2022-11-22T00:10:33.369Z,26.50
2022-11-22T00:13:00.375Z,27.20
2022-11-22T00:15:27.396Z,27.00
2022-11-22T00:17:54.567Z,25.80
2022-11-22T00:20:21.575Z,26.10
2022-11-22T00:22:48.596Z,24.60
2022-11-22T00:25:15.735Z,24.40
2022-11-22T00:27:42.898Z,24.20
2022-11-22T00:30:10.761Z,24.80
2022-11-22T00:32:37.702Z,25.30
2022-11-22T00:35:05.490Z,25.70
2022-11-22T00:37:32.520Z,26.30
2022-11-22T00:39:59.427Z,26.30
2022-11-22T00:42:26.262Z,25.70
2022-11-22T00:44:53.278Z,25.40
2022-11-22T00:47:20.233Z,25.30
2022-11-22T00:49:47.157Z,25.80
2022-11-22T00:52:14.294Z,26.40
2022-11-22T00:54:41.583Z,26.00
2022-11-22T00:57:08.437Z,25.50
2022-11-22T00:59:35.347Z,24.90
2022-11-22T01:02:02.282Z,24.80
2022-11-22T01:04:29.146Z,24.40
2022-11-22T01:06:56.093Z,24.80
2022-11-22T01:09:24.203Z,25.30
2022-11-22T01:11:51.597Z,25.80
2022-11-22T01:14:19.620Z,26.30
2022-11-22T01:16:46.760Z,25.90
2022-11-22T01:19:14.296Z,25.60
2022-11-22T01:21:41.186Z,25.40
2022-11-22T01:24:09.057Z,26.20
2022-11-22T01:26:36.065Z,26.80
2022-11-22T01:29:03.436Z,27.10
2022-11-22T01:31:30.453Z,27.50
2022-11-22T01:33:59.030Z,28.00
2022-11-22T01:36:26.977Z,27.70
2022-11-22T01:38:53.947Z,28.00
2022-11-22T01:41:21.069Z,27.30
2022-11-22T01:43:47.937Z,26.50
2022-11-22T01:46:37.204Z,26.80
2022-11-22T01:49:09.595Z,27.60
2022-11-22T01:51:42.200Z,28.20
2022-11-22T01:54:13.890Z,27.90
2022-11-22T01:56:44.737Z,28.00
2022-11-22T01:59:14.814Z,27.30
2022-11-22T02:01:42.028Z,26.30
2022-11-22T02:04:12.307Z,26.70
2022-11-22T02:07:05.960Z,27.10
2022-11-22T02:09:34.348Z,27.30
2022-11-22T02:12:03.754Z,26.50
2022-11-22T02:14:32.184Z,26.30
2022-11-22T02:16:59.086Z,27.00
2022-11-22T02:19:44.517Z,26.20
2022-11-22T02:22:25.603Z,27.40
2022-11-22T02:25:03.407Z,26.70
2022-11-22T02:27:30.266Z,27.30
2022-11-22T02:29:57.118Z,25.80
2022-11-22T02:32:24.023Z,26.50
2022-11-22T02:34:51.475Z,25.60
2022-11-22T02:37:28.644Z,24.40
2022-11-22T02:40:09.101Z,24.70
2022-11-22T02:42:36.220Z,25.20
2022-11-22T02:45:03.137Z,25.50
2022-11-22T02:47:30.019Z,24.20
2022-11-22T02:49:56.891Z,24.70
2022-11-22T02:52:23.728Z,25.00
2022-11-22T02:54:50.612Z,25.30
2022-11-22T02:57:17.553Z,25.00
2022-11-22T02:59:44.388Z,24.90
2022-11-22T03:02:11.425Z,25.60
2022-11-22T03:04:38.374Z,26.40
2022-11-22T03:07:05.410Z,26.20
2022-11-22T03:09:32.673Z,25.60
2022-11-22T03:12:00.120Z,25.00
2022-11-22T03:14:27.075Z,25.30
2022-11-22T03:16:53.955Z,24.80
2022-11-22T03:19:21.225Z,24.90
2022-11-22T03:21:48.109Z,24.90
2022-11-22T03:24:15.080Z,24.90
2022-11-22T03:26:46.080Z,25.90
2022-11-22T03:29:13.023Z,25.50
2022-11-22T03:31:39.930Z,25.80
2022-11-22T03:34:06.886Z,26.40
2022-11-22T03:36:33.746Z,26.50
2022-11-22T03:39:00.674Z,26.00
2022-11-22T03:41:27.576Z,25.50
2022-11-22T03:43:54.514Z,25.10
2022-11-22T03:46:21.628Z,25.50
2022-11-22T03:48:48.843Z,25.70
2022-11-22T03:51:15.798Z,26.00
2022-11-22T03:53:42.736Z,26.50
2022-11-22T03:56:09.666Z,27.30
2022-11-22T03:58:36.750Z,26.70
2022-11-22T04:01:03.997Z,26.50
2022-11-22T04:03:31.010Z,26.30
2022-11-22T04:05:58.078Z,26.20
2022-11-22T04:08:25.066Z,26.50
2022-11-22T04:10:52.660Z,25.90
2022-11-22T04:13:19.807Z,25.90
2022-11-22T04:15:46.767Z,25.30
2022-11-22T04:18:14.708Z,24.00
2022-11-22T04:21:00.173Z,24.00
2022-11-22T04:23:33.540Z,24.20
2022-11-22T04:26:01.254Z,23.40
2022-11-22T04:28:53.557Z,24.10
2022-11-22T04:31:33.545Z,23.70
2022-11-22T04:34:00.523Z,24.10
2022-11-22T04:36:27.401Z,24.00
2022-11-22T04:38:54.244Z,24.00
2022-11-22T04:41:21.192Z,23.30
2022-11-22T04:44:06.746Z,23.50
2022-11-22T04:46:33.672Z,23.70
2022-11-22T04:49:00.525Z,24.50
2022-11-22T04:51:46.051Z,24.70
2022-11-22T04:54:13.083Z,24.70
2022-11-22T04:56:40.246Z,24.00
2022-11-22T04:59:07.284Z,24.40
2022-11-22T05:01:34.223Z,24.20
2022-11-22T05:04:01.159Z,23.80
2022-11-22T05:06:28.089Z,24.60
2022-11-22T05:08:55.289Z,25.40
2022-11-22T05:11:22.151Z,25.20
2022-11-22T05:13:49.021Z,25.40
2022-11-22T05:16:16.202Z,25.50
2022-11-22T05:18:43.447Z,25.90
2022-11-22T05:21:12.873Z,26.00
2022-11-22T05:23:55.815Z,26.30
2022-11-22T05:26:25.434Z,26.20
2022-11-22T05:28:52.610Z,26.10
2022-11-22T05:31:27.253Z,25.50
2022-11-22T05:33:56.206Z,25.70
2022-11-22T05:36:24.214Z,25.60
2022-11-22T05:38:51.331Z,25.10
2022-11-22T05:41:18.627Z,24.30
2022-11-22T05:43:45.640Z,23.80
2022-11-22T05:46:24.717Z,23.70
2022-11-22T05:48:53.769Z,24.00
2022-11-22T05:51:23.884Z,24.50
2022-11-22T05:53:51.315Z,23.80
2022-11-22T05:56:23.330Z,23.60
2022-11-22T05:58:51.287Z,23.20
2022-11-22T06:01:23.050Z,23.00
2022-11-22T06:03:50.669Z,22.60
2022-11-22T06:06:18.192Z,23.90
2022-11-22T06:08:48.174Z,24.30
2022-11-22T06:11:24.167Z,25.30
2022-11-22T06:13:57.097Z,26.20
2022-11-22T06:16:24.464Z,25.40
2022-11-22T06:18:51.409Z,25.40
2022-11-22T06:21:20.865Z,24.90
2022-11-22T06:23:47.802Z,24.80
2022-11-22T06:26:17.533Z,24.70
2022-11-22T06:28:46.112Z,24.40
2022-11-22T06:31:15.728Z,24.30
2022-11-22T06:33:43.289Z,24.70
2022-11-22T06:36:12.841Z,24.60
2022-11-22T06:38:41.226Z,24.10
2022-11-22T06:41:10.803Z,23.50
2022-11-22T06:43:43.624Z,24.30
2022-11-22T06:46:14.980Z,24.30
2022-11-22T06:48:42.798Z,25.00
2022-11-22T06:51:20.875Z,23.50
2022-11-22T06:53:49.685Z,23.10
2022-11-22T06:56:25.055Z,22.90
2022-11-22T06:58:53.602Z,22.90
2022-11-22T07:01:23.663Z,23.00
2022-11-22T07:03:51.839Z,24.00
2022-11-22T07:06:19.579Z,24.60
2022-11-22T07:08:47.463Z,24.70
2022-11-22T07:11:19.676Z,25.00
2022-11-22T07:13:48.087Z,24.30
2022-11-22T07:16:17.884Z,24.60
2022-11-22T07:18:45.247Z,25.20
2022-11-22T07:21:23.865Z,25.00
2022-11-22T07:23:55.641Z,25.60
2022-11-22T07:26:24.789Z,26.00
2022-11-22T07:28:51.969Z,26.50
2022-11-22T07:31:19.604Z,26.90
2022-11-22T07:33:46.963Z,26.70
2022-11-22T07:36:15.548Z,26.90
2022-11-22T07:38:42.960Z,26.50
2022-11-22T07:41:13.560Z,26.50
2022-11-22T07:43:40.856Z,26.50
2022-11-22T07:46:15.766Z,26.00
2022-11-22T07:48:42.671Z,25.40
2022-11-22T07:51:09.597Z,25.80
2022-11-22T07:53:36.790Z,26.00
2022-11-22T07:56:05.168Z,25.70
2022-11-22T07:58:33.255Z,24.90
2022-11-22T08:01:12.163Z,24.70
2022-11-22T08:03:39.439Z,24.70
2022-11-22T08:06:09.089Z,24.20
2022-11-22T08:08:36.770Z,24.00
2022-11-22T08:11:05.575Z,24.90
2022-11-22T08:13:35.648Z,25.30
2022-11-22T08:16:09.149Z,25.70
2022-11-22T08:18:37.799Z,26.00
2022-11-22T08:21:09.867Z,25.30
2022-11-22T08:23:37.591Z,25.60
2022-11-22T08:26:06.024Z,25.80
2022-11-22T08:28:33.403Z,26.10
2022-11-22T08:31:12.556Z,26.30
2022-11-22T08:33:39.989Z,26.00
2022-11-22T08:36:07.416Z,25.60
2022-11-22T08:38:34.809Z,26.10
2022-11-22T08:41:02.034Z,26.10
2022-11-22T08:43:29.025Z,26.60
2022-11-22T08:45:58.227Z,26.10
2022-11-22T08:48:29.824Z,24.30
2022-11-22T08:50:59.317Z,24.10
2022-11-22T08:53:27.112Z,24.60
2022-11-22T08:55:55.186Z,24.90
2022-11-22T08:58:23.158Z,24.20
2022-11-22T09:00:50.108Z,24.70
2022-11-22T09:03:17.092Z,25.40
2022-11-22T09:08:36.065Z,26.10
2022-11-22T09:11:10.502Z,25.60
2022-11-22T09:13:38.054Z,25.50
2022-11-22T09:16:11.192Z,25.90
2022-11-22T09:18:38.855Z,26.20
2022-11-22T09:21:08.060Z,27.00
2022-11-22T09:23:36.693Z,27.80
2022-11-22T09:26:06.232Z,27.30
2022-11-22T09:28:33.925Z,26.00
2022-11-22T09:31:09.364Z,26.70
2022-11-22T09:33:38.228Z,26.40
2022-11-22T09:36:08.002Z,26.90
2022-11-22T09:38:35.803Z,26.50
2022-11-22T09:41:12.899Z,26.10
2022-11-22T09:43:57.836Z,26.00
2022-11-22T09:46:53.704Z,26.90
2022-11-22T09:49:28.557Z,26.60
2022-11-22T09:52:08.946Z,26.70
2022-11-22T09:54:46.754Z,26.10
2022-11-22T09:57:21.735Z,25.90
2022-11-22T09:59:57.935Z,25.60
2022-11-22T10:03:01.089Z,26.00
2022-11-22T10:05:43.395Z,25.90
2022-11-22T10:08:34.151Z,26.90
2022-11-22T10:11:01.515Z,25.40
2022-11-22T10:13:34.175Z,25.30
2022-11-22T10:16:14.746Z,25.90
2022-11-22T10:18:52.849Z,25.80
2022-11-22T10:21:20.161Z,25.70
2022-11-22T10:23:48.159Z,26.20
2022-11-22T10:26:36.827Z,27.20
2022-11-22T10:29:10.629Z,27.00
2022-11-22T10:31:56.826Z,26.90
2022-11-22T10:35:10.693Z,26.10
2022-11-22T10:37:45.592Z,25.60
2022-11-22T10:40:41.692Z,24.70
2022-11-22T10:43:20.504Z,24.70
2022-11-22T10:45:53.276Z,24.00
2022-11-22T10:48:46.590Z,24.10
2022-11-22T10:51:42.544Z,24.30
2022-11-22T10:54:34.354Z,24.60
2022-11-22T10:57:27.023Z,24.20
2022-11-22T11:00:25.391Z,24.00
2022-11-22T11:02:59.930Z,24.30
2022-11-22T11:06:00.954Z,24.50
2022-11-22T11:09:02.628Z,24.00
2022-11-22T11:11:26.658Z,24.50
2022-11-22T11:13:58.422Z,26.00
2022-11-22T11:16:30.374Z,26.00
2022-11-22T11:19:14.202Z,25.00
2022-11-22T11:21:41.047Z,24.30
2022-11-22T11:24:17.548Z,23.60
2022-11-22T11:26:53.787Z,24.50
2022-11-22T11:29:37.393Z,25.20
2022-11-22T11:32:22.088Z,25.80
2022-11-22T11:34:58.469Z,25.70
2022-11-22T11:37:32.302Z,26.40
2022-11-22T11:39:59.258Z,27.10
2022-11-22T11:42:35.959Z,27.00
2022-11-22T11:45:28.903Z,27.30
2022-11-22T11:47:56.051Z,27.80
2022-11-22T11:50:28.068Z,28.70
2022-11-22T11:53:05.912Z,27.90
2022-11-22T11:55:35.654Z,28.40
2022-11-22T11:58:16.196Z,27.90
2022-11-22T12:00:45.292Z,27.40
2022-11-22T12:03:17.037Z,26.90
2022-11-22T12:05:43.927Z,27.30
2022-11-22T12:08:31.271Z,26.60
2022-11-22T12:11:05.676Z,25.80
2022-11-22T12:14:18.444Z,25.50
2022-11-22T12:16:57.507Z,25.70
2022-11-22T12:19:57.495Z,27.30
2022-11-22T12:22:50.277Z,26.40
2022-11-22T12:25:37.299Z,26.90
2022-11-22T12:28:19.411Z,27.00
2022-11-22T12:31:15.870Z,27.80
2022-11-22T12:33:53.390Z,28.00
2022-11-22T12:36:38.880Z,27.70
2022-11-22T12:39:08.751Z,27.30
2022-11-22T12:41:36.638Z,26.50
2022-11-22T12:44:07.067Z,25.80
2022-11-22T12:46:40.652Z,26.00
2022-11-22T12:49:11.937Z,26.40
2022-11-22T12:52:16.508Z,26.40
2022-11-22T12:55:00.734Z,25.70
2022-11-22T12:57:53.373Z,25.60
2022-11-22T13:00:24.463Z,25.60
2022-11-22T13:03:12.522Z,26.00
2022-11-22T13:05:50.620Z,25.60
2022-11-22T13:09:03.215Z,25.00
2022-11-22T13:11:39.763Z,24.70
2022-11-22T13:14:35.787Z,24.40
2022-11-22T13:17:08.109Z,24.70
2022-11-22T13:19:41.884Z,24.90
2022-11-22T13:22:43.659Z,23.90
2022-11-22T13:25:29.413Z,24.00
2022-11-22T13:28:01.198Z,24.30
2022-11-22T13:30:30.676Z,25.60
2022-11-22T13:33:00.003Z,26.20
2022-11-22T13:35:37.582Z,26.80
2022-11-22T13:38:20.483Z,26.70
2022-11-22T13:40:52.151Z,26.60
2022-11-22T13:43:22.497Z,27.10
2022-11-22T13:45:56.570Z,26.20
2022-11-22T13:48:41.553Z,26.50
2022-11-22T13:51:13.409Z,26.70
2022-11-22T13:53:43.860Z,25.50
2022-11-22T13:56:16.746Z,26.40
2022-11-22T13:58:55.952Z,26.40
2022-11-22T14:01:37.798Z,26.00
2022-11-22T14:04:17.814Z,26.10
2022-11-22T14:07:13.249Z,25.70
2022-11-22T14:09:43.075Z,26.20
2022-11-22T14:12:12.788Z,25.60
2022-11-22T14:15:01.466Z,26.70
2022-11-22T14:17:40.196Z,26.50
2022-11-22T14:20:38.603Z,26.30
2022-11-22T14:23:15.171Z,25.80
2022-11-22T14:26:00.621Z,26.50
2022-11-22T14:28:49.418Z,27.30
2022-11-22T14:31:26.643Z,26.20
2022-11-22T14:34:15.515Z,25.80
2022-11-22T14:36:43.122Z,26.00
2022-11-22T14:39:44.779Z,26.90
2022-11-22T14:42:47.575Z,27.10
2022-11-22T14:45:49.888Z,27.40
2022-11-22T14:48:22.266Z,26.90
2022-11-22T14:51:07.094Z,26.80
2022-11-22T14:53:43.723Z,27.10
2022-11-22T14:56:22.900Z,26.80
2022-11-22T14:59:13.323Z,25.80
2022-11-22T15:01:56.569Z,25.60
2022-11-22T15:09:12.947Z,24.70
2022-11-22T15:09:14.435Z,25.00
2022-11-22T15:10:58.817Z,24.60
2022-11-22T15:14:04.366Z,25.50
2022-11-22T15:57:24.387Z,24.60
2022-11-22T15:59:54.740Z,24.80
2022-11-22T16:02:31.498Z,24.70
2022-11-22T16:06:08.155Z,25.70
2022-11-22T16:07:50.107Z,26.40
2022-11-22T16:10:39.939Z,26.90
2022-11-22T16:13:24.795Z,27.70
2022-11-22T16:16:13.196Z,27.50
2022-11-22T16:18:41.716Z,26.50
2022-11-22T16:21:11.494Z,25.80
2022-11-22T16:23:45.224Z,25.80
2022-11-22T16:26:20.687Z,25.40
2022-11-22T16:28:51.244Z,25.80
2022-11-22T16:31:23.716Z,25.30
2022-11-22T16:33:51.838Z,25.90
2022-11-22T16:36:20.722Z,25.50
2022-11-22T16:38:47.747Z,24.90
2022-11-22T16:41:22.570Z,25.00
2022-11-22T16:43:52.950Z,26.10
2022-11-22T16:46:20.603Z,25.90
2022-11-22T16:48:47.547Z,26.50
2022-11-22T16:51:17.113Z,26.80
2022-11-22T16:53:48.788Z,27.00
2022-11-22T16:56:29.851Z,27.20
2022-11-22T16:58:58.118Z,27.20
2022-11-22T17:01:27.480Z,27.50
2022-11-22T17:03:56.876Z,27.30
2022-11-22T17:06:26.436Z,26.90
2022-11-22T17:08:57.798Z,27.10
2022-11-22T17:11:26.941Z,26.40
2022-11-22T17:13:54.392Z,26.50
2022-11-22T17:16:21.257Z,27.10
2022-11-22T17:18:48.726Z,27.40
2022-11-22T17:21:26.506Z,27.00
2022-11-22T17:24:04.801Z,26.40
2022-11-22T17:26:33.839Z,26.70
2022-11-22T17:29:00.836Z,27.30
2022-11-22T17:31:28.684Z,27.40
2022-11-22T17:33:59.417Z,27.70
2022-11-22T17:36:34.050Z,27.60
2022-11-22T17:39:05.611Z,27.50
2022-11-22T17:41:33.539Z,27.50
2022-11-22T17:44:01.343Z,27.50
2022-11-22T17:46:29.860Z,27.80
2022-11-22T17:48:59.649Z,27.90
2022-11-22T17:51:30.783Z,28.00
2022-11-22T17:53:58.404Z,27.70
2022-11-22T17:56:26.303Z,27.60
2022-11-22T17:58:54.614Z,28.00
2022-11-22T18:01:22.930Z,28.30
2022-11-22T18:03:50.251Z,27.40
2022-11-22T18:06:18.542Z,27.10
2022-11-22T18:08:47.467Z,27.70
2022-11-22T18:11:15.520Z,28.00
2022-11-22T18:13:43.028Z,28.10
2022-11-22T18:16:15.927Z,28.10
2022-11-22T18:18:58.785Z,28.50
2022-11-22T18:21:30.303Z,28.40
2022-11-22T18:24:01.788Z,28.60
2022-11-22T18:26:39.358Z,28.70
2022-11-22T18:31:56.008Z,27.80
2022-11-22T18:34:23.348Z,28.10
2022-11-22T18:37:01.902Z,27.60
2022-11-22T18:39:32.649Z,26.90
2022-11-22T18:42:00.172Z,27.20
2022-11-22T18:44:27.214Z,26.90
2022-11-22T18:46:54.170Z,27.30
2022-11-22T18:49:21.041Z,26.80
2022-11-22T18:51:47.963Z,26.80
2022-11-22T18:54:14.935Z,26.20
2022-11-22T18:56:41.826Z,26.40
2022-11-22T18:59:12.791Z,26.60
2022-11-22T19:01:39.916Z,26.80
2022-11-22T19:04:07.167Z,27.10
2022-11-22T19:06:34.137Z,27.60
2022-11-22T19:09:01.801Z,27.30
2022-11-22T19:11:32.293Z,27.90
2022-11-22T19:13:59.832Z,27.90
2022-11-22T19:16:29.688Z,28.30
2022-11-22T19:18:57.520Z,28.50
2022-11-22T19:21:28.246Z,28.60
2022-11-22T19:23:56.547Z,27.70
2022-11-22T19:26:25.679Z,28.20
2022-11-22T19:28:56.270Z,28.10
2022-11-22T19:31:26.041Z,27.70
2022-11-22T19:33:53.233Z,27.40
2022-11-22T19:36:23.473Z,28.30
2022-11-22T19:38:53.523Z,27.80
2022-11-22T19:41:22.224Z,27.70
2022-11-22T19:43:50.651Z,27.70
2022-11-22T19:46:20.170Z,28.00
2022-11-22T19:48:52.761Z,28.10
2022-11-22T19:51:20.315Z,27.70
2022-11-22T19:53:47.295Z,27.30
2022-11-22T19:56:17.071Z,27.00
2022-11-22T19:58:49.292Z,27.00
2022-11-22T20:01:16.752Z,27.70
2022-11-22T20:03:44.715Z,27.60
2022-11-22T20:06:14.168Z,26.70
2022-11-22T20:08:41.483Z,26.50
2022-11-22T20:11:21.576Z,26.60
2022-11-22T20:13:50.626Z,26.60
2022-11-22T20:16:26.211Z,26.10
2022-11-22T20:18:54.560Z,26.30
2022-11-22T20:21:22.653Z,26.90
2022-11-22T20:23:50.715Z,27.40
2022-11-22T20:26:19.190Z,28.10
2022-11-22T20:28:46.939Z,27.40
2022-11-22T20:31:19.060Z,27.00
2022-11-22T20:33:52.151Z,27.50
2022-11-22T20:36:22.055Z,27.50
2022-11-22T20:38:50.014Z,27.30
2022-11-22T20:41:19.465Z,26.90
2022-11-22T20:43:46.981Z,27.50
2022-11-22T20:46:16.460Z,27.40
2022-11-22T20:48:45.507Z,27.70
2022-11-22T20:51:18.806Z,27.40
2022-11-22T20:53:46.381Z,27.50
2022-11-22T20:56:14.388Z,27.50
2022-11-22T20:58:41.551Z,28.10
2022-11-22T21:01:23.616Z,28.30
2022-11-22T21:03:52.003Z,28.00
2022-11-22T21:06:21.241Z,28.10
2022-11-22T21:08:48.215Z,28.30
2022-11-22T21:11:16.457Z,28.50
2022-11-22T21:13:44.189Z,28.30
2022-11-22T21:16:22.788Z,28.20
2022-11-22T21:18:55.626Z,28.50
2022-11-22T21:21:24.294Z,28.00
2022-11-22T21:23:53.271Z,28.40
2022-11-22T21:26:20.689Z,28.70
2022-11-22T21:28:47.886Z,28.80
2022-11-22T21:31:15.265Z,28.70
2022-11-22T21:33:42.773Z,28.00
2022-11-22T21:36:10.065Z,28.30
2022-11-22T21:38:38.616Z,28.30
2022-11-22T21:41:38.172Z,28.40
2022-11-22T21:43:56.696Z,28.00
2022-11-22T21:46:25.117Z,27.50
2022-11-22T21:48:53.078Z,26.50
2022-11-22T21:51:19.993Z,26.70
2022-11-22T21:53:46.910Z,27.40
2022-11-22T21:56:13.874Z,28.00
2022-11-22T21:58:42.491Z,28.00
2022-11-22T22:01:14.094Z,27.70
2022-11-22T22:03:41.309Z,28.30
2022-11-22T22:06:08.623Z,27.70
2022-11-22T22:08:36.441Z,27.90
2022-11-22T22:11:05.431Z,27.60
2022-11-22T22:13:32.872Z,26.90
2022-11-22T22:16:03.872Z,26.70
2022-11-22T22:18:35.653Z,27.10
2022-11-22T22:21:07.477Z,27.30
2022-11-22T22:23:35.522Z,26.60
2022-11-22T22:26:04.678Z,26.90
2022-11-22T22:28:33.866Z,27.10
2022-11-22T22:31:12.193Z,26.80
2022-11-22T22:33:41.194Z,27.10
2022-11-22T22:36:10.097Z,26.80
2022-11-22T22:38:37.004Z,26.90
2022-11-22T22:41:04.892Z,27.80
2022-11-22T22:43:38.448Z,27.30
2022-11-22T22:46:10.648Z,27.30
2022-11-22T22:48:37.811Z,27.40
2022-11-22T22:51:08.823Z,27.40
2022-11-22T22:53:35.747Z,27.30
2022-11-22T22:56:03.208Z,27.20
2022-11-22T22:58:30.143Z,27.10
2022-11-22T23:01:14.793Z,26.60
2022-11-22T23:03:41.752Z,27.30
2022-11-22T23:06:10.988Z,27.00
2022-11-22T23:08:38.860Z,27.60
2022-11-22T23:11:08.342Z,27.90
2022-11-22T23:13:37.287Z,28.70
2022-11-22T23:16:05.709Z,27.50
2022-11-22T23:18:36.286Z,26.40
2022-11-22T23:21:04.982Z,26.80
2022-11-22T23:23:32.546Z,27.20
2022-11-22T23:26:08.210Z,26.90
2022-11-22T23:28:35.269Z,26.90
2022-11-22T23:31:10.644Z,27.40
2022-11-22T23:33:37.798Z,27.20
2022-11-22T23:36:09.998Z,27.20
2022-11-22T23:38:36.916Z,26.70
2022-11-22T23:41:04.196Z,26.90
2022-11-22T23:43:31.436Z,27.20
2022-11-22T23:45:59.033Z,27.00
2022-11-22T23:48:26.915Z,26.80
2022-11-22T23:50:53.773Z,26.90
2022-11-22T23:53:20.700Z,27.30
2022-11-22T23:55:47.720Z,26.80
2022-11-22T23:58:14.584Z,26.80
